Time;durP1;ratioP1;P1;durP2;ratioP2;P2;SDS_P1;SDS_P2;PMS_P1;PMS_P2;Temp;Humidity;BMP_temperature;BMP_pressure;BME280_temperature;BME280_humidity;BME280_pressure;Samples;Min_cycle;Max_cycle;Signal;HPM_P1;HPM_P2
2023/05/19 08:46:23;;;;;;;17.20;3.10;;;;;;;17.73;46.70;102462.81;16197049;19;129875;-37
2023/05/19 08:52:22;;;;;;;12.35;3.13;;;;;;;18.59;44.22;102438.53;16191227;19;129495;-37
2023/05/19 08:57:45;;;;;;;11.40;2.47;;;;;;;19.13;42.93;102444.19;16188977;19;131354;-37
2023/05/19 09:03:07;;;;;;;13.52;2.47;;;;;;;19.49;42.21;102442.91;16191641;19;129762;-38
2023/05/19 09:08:43;;;;;;;;;;;;;;;19.69;40.36;102429.84;16191287;19;130084;-48
2023/05/19 09:14:05;;;;;;;16.30;2.60;;;;;;;19.88;40.30;102423.63;16191329;19;130782;-46
2023/05/19 09:19:28;;;;;;;12.95;2.10;;;;;;;19.99;39.58;102429.38;16194448;19;131575;-46
2023/05/19 09:24:52;;;;;;;11.75;2.45;;;;;;;20.03;39.37;102417.84;16191574;19;129905;-47
2023/05/19 09:30:15;;;;;;;5.25;2.28;;;;;;;20.04;38.60;102422.31;16186959;19;129645;-47
2023/05/19 09:35:37;;;;;;;9.30;2.55;;;;;;;20.06;38.26;102422.97;16190731;19;129847;-47
2023/05/19 09:41:00;;;;;;;8.38;2.15;;;;;;;20.03;37.95;102410.34;16191168;19;130065;-47
2023/05/19 09:46:27;;;;;;;10.95;2.20;;;;;;;20.00;38.11;102416.31;16192191;19;130026;-47
2023/05/19 09:51:53;;;;;;;5.00;2.00;;;;;;;20.01;37.40;102412.47;16190976;19;131063;-47
2023/05/19 09:57:15;;;;;;;4.88;1.73;;;;;;;19.99;37.48;102411.84;16129406;19;130003;-47
2023/05/19 10:02:41;;;;;;;8.02;2.25;;;;;;;19.99;36.98;102412.72;16124923;19;129743;-47
2023/05/19 10:08:06;;;;;;;6.00;1.83;;;;;;;19.97;36.87;102417.59;16124033;19;129950;-46
2023/05/19 10:13:29;;;;;;;8.50;1.88;;;;;;;19.97;36.25;102409.25;16126846;19;131405;-47
2023/05/19 10:18:54;;;;;;;6.65;1.67;;;;;;;19.97;36.33;102403.72;16126259;19;131273;-46
2023/05/19 10:24:17;;;;;;;7.83;2.10;;;;;;;19.98;36.51;102399.00;16124536;19;129312;-46
2023/05/19 10:29:46;;;;;;;9.27;1.98;;;;;;;19.98;36.60;102391.53;16126169;19;129547;-46
2023/05/19 10:35:34;;;;;;;6.93;2.00;;;;;;;19.96;36.50;102393.66;16124200;19;130337;-46
2023/05/19 10:41:06;;;;;;;7.63;2.00;;;;;;;19.95;36.20;102391.94;16123672;19;129793;-48
2023/05/19 10:46:29;;;;;;;6.10;2.00;;;;;;;19.93;36.82;102393.25;16124415;19;130570;-46
2023/05/19 10:51:55;;;;;;;6.32;1.60;;;;;;;19.91;36.24;102385.16;16122007;19;130380;-47
2023/05/19 10:57:19;;;;;;;8.63;1.98;;;;;;;19.91;35.82;102376.81;16122629;19;129791;-47
2023/05/19 11:02:42;;;;;;;6.30;1.92;;;;;;;19.92;35.78;102375.75;16120750;19;129015;-47
2023/05/19 11:08:06;;;;;;;10.02;1.92;;;;;;;19.90;35.97;102385.34;16113263;19;131576;-47
2023/05/19 11:13:28;;;;;;;7.10;1.88;;;;;;;19.89;35.67;102378.97;16120200;19;131252;-46
2023/05/19 11:18:53;;;;;;;7.22;2.15;;;;;;;19.89;35.48;102378.97;16107494;19;130536;-46
2023/05/19 11:24:36;;;;;;;6.87;1.87;;;;;;;19.91;34.84;102362.94;16116016;19;130301;-47
2023/05/19 11:30:13;;;;;;;8.20;2.08;;;;;;;19.92;34.85;102361.88;16117979;19;130331;-47
2023/05/19 11:35:36;;;;;;;10.80;1.80;;;;;;;19.89;34.68;102348.41;16116052;19;131609;-47
2023/05/19 11:40:59;;;;;;;7.25;1.95;;;;;;;19.90;35.01;102354.81;16115989;19;130745;-47
2023/05/19 11:46:21;;;;;;;8.85;1.90;;;;;;;19.92;34.58;102347.97;16118834;19;130650;-41
2023/05/19 11:51:44;;;;;;;10.30;1.95;;;;;;;19.96;35.49;102342.81;16115889;19;129344;-39
2023/05/19 11:57:09;;;;;;;19.02;2.95;;;;;;;20.01;35.36;102339.41;16115985;19;130945;-38
2023/05/19 12:02:31;;;;;;;8.55;1.83;;;;;;;19.98;34.54;102330.41;16115086;19;129815;-38
2023/05/19 12:07:53;;;;;;;10.18;2.25;;;;;;;19.97;34.66;102333.41;16113215;19;130633;-38
2023/05/19 12:13:15;;;;;;;11.05;2.10;;;;;;;19.96;34.14;102324.22;16114444;19;131284;-38
2023/05/19 12:18:37;;;;;;;11.93;2.05;;;;;;;19.95;34.25;102319.72;16115330;19;130864;-37
2023/05/19 12:23:59;;;;;;;7.40;1.70;;;;;;;19.95;34.40;102316.13;16111926;19;129204;-38
2023/05/19 12:29:26;;;;;;;6.25;1.75;;;;;;;19.93;34.13;102313.56;16110582;19;129709;-37
2023/05/19 12:34:48;;;;;;;7.10;1.70;;;;;;;19.92;34.13;102297.97;16112336;19;131296;-37
2023/05/19 12:40:15;;;;;;;8.20;1.83;;;;;;;19.91;33.92;102298.19;16109843;19;130101;-38
2023/05/19 12:45:41;;;;;;;9.43;1.90;;;;;;;19.91;33.99;102295.41;16113795;19;129481;-38
2023/05/19 12:51:04;;;;;;;6.57;2.03;;;;;;;19.90;34.12;102300.13;16112999;19;129251;-39
2023/05/19 12:56:26;;;;;;;4.13;1.50;;;;;;;19.90;34.09;102286.22;16111219;19;130007;-38
2023/05/19 13:01:57;;;;;;;5.88;1.73;;;;;;;19.92;33.85;102284.09;16107186;19;131618;-38
2023/05/19 13:07:19;;;;;;;8.60;1.85;;;;;;;19.89;33.97;102276.19;16112110;19;130010;-38
2023/05/19 13:12:41;;;;;;;9.20;2.20;;;;;;;19.86;33.90;102284.97;16111342;19;131451;-37
2023/05/19 13:18:05;;;;;;;3.97;1.30;;;;;;;19.86;33.81;102276.63;16109091;19;130841;-37
2023/05/19 13:23:27;;;;;;;5.70;1.80;;;;;;;19.84;34.19;102265.75;16112662;19;130404;-38
2023/05/19 13:28:48;;;;;;;7.25;1.85;;;;;;;19.85;33.81;102277.72;16111859;19;131843;-37
2023/05/19 13:34:10;;;;;;;5.82;1.65;;;;;;;19.85;33.57;102263.81;16126921;19;129782;-37
2023/05/19 13:39:32;;;;;;;7.65;1.95;;;;;;;19.86;33.67;102264.69;16128835;19;130194;-38
2023/05/19 13:44:55;;;;;;;7.28;1.55;;;;;;;19.87;33.63;102255.28;16128790;19;129205;-37
2023/05/19 13:50:17;;;;;;;6.70;1.80;;;;;;;19.86;33.61;102243.31;16126167;19;132129;-38
2023/05/19 13:55:39;;;;;;;5.80;1.50;;;;;;;19.87;33.75;102246.97;16129584;19;130218;-38
2023/05/19 14:01:01;;;;;;;4.97;1.90;;;;;;;19.85;33.42;102247.16;16128717;19;131027;-39
2023/05/19 14:06:23;;;;;;;5.05;1.70;;;;;;;19.86;33.74;102251.63;16120904;19;130600;-38
2023/05/19 14:11:46;;;;;;;6.88;1.85;;;;;;;19.86;33.25;102248.03;16117648;19;130384;-43
2023/05/19 14:17:08;;;;;;;8.63;1.70;;;;;;;19.85;33.36;102241.59;16123822;19;130984;-38
2023/05/19 14:22:30;;;;;;;3.83;1.40;;;;;;;19.85;33.46;102247.16;16122074;19;129974;-38
2023/05/19 14:27:52;;;;;;;4.03;1.63;;;;;;;19.86;33.47;102251.63;16118228;19;130811;-39
2023/05/19 14:33:14;;;;;;;5.18;1.65;;;;;;;19.86;33.61;102239.69;16121436;19;129443;-37
2023/05/19 14:38:35;;;;;;;4.43;1.60;;;;;;;19.87;33.48;102235.84;16118026;19;130386;-37
2023/05/19 14:43:57;;;;;;;5.93;1.30;;;;;;;19.87;33.20;102239.47;16116570;19;130321;-37
2023/05/19 14:49:19;;;;;;;5.63;1.85;;;;;;;19.83;32.75;102227.09;16120432;19;130535;-37
2023/05/19 14:54:41;;;;;;;5.72;1.60;;;;;;;19.83;33.16;102241.84;16116488;19;129065;-38
2023/05/19 15:00:03;;;;;;;6.40;1.50;;;;;;;19.83;32.91;102229.84;16113607;19;132557;-37
2023/05/19 15:05:25;;;;;;;7.47;1.83;;;;;;;19.84;33.05;102223.22;16118422;19;129447;-37
2023/05/19 15:10:48;;;;;;;6.35;1.50;;;;;;;19.85;33.29;102216.59;16116600;19;130501;-38
2023/05/19 15:16:11;;;;;;;4.47;1.50;;;;;;;19.87;33.24;102211.69;16115698;19;129586;-37
2023/05/19 15:21:44;;;;;;;7.60;1.83;;;;;;;19.89;33.42;102206.78;16117582;19;130931;-37
2023/05/19 15:27:07;;;;;;;8.77;1.70;;;;;;;19.87;33.36;102203.34;16114708;19;129686;-37
2023/05/19 15:32:29;;;;;;;7.35;1.55;;;;;;;19.88;33.84;102201.44;16117557;19;135073;-37
2023/05/19 15:37:51;;;;;;;3.78;1.40;;;;;;;19.86;33.40;102196.09;16114737;19;131751;-37
2023/05/19 15:43:13;;;;;;;8.75;1.50;;;;;;;19.87;33.40;102192.25;16114572;19;130230;-37
2023/05/19 15:48:35;;;;;;;6.82;1.40;;;;;;;19.87;33.20;102188.63;16113361;19;129837;-37
2023/05/19 15:53:57;;;;;;;11.77;2.03;;;;;;;19.87;32.93;102181.13;16110302;19;129310;-37
2023/05/19 15:59:19;;;;;;;10.70;2.58;;;;;;;19.86;32.53;102184.16;16105817;19;131805;-37
2023/05/19 16:04:41;;;;;;;14.65;2.00;;;;;;;19.86;32.23;102178.59;16105833;19;130071;-37
2023/05/19 16:10:03;;;;;;;5.63;1.95;;;;;;;19.87;32.03;102188.63;16111691;19;129847;-37
2023/05/19 16:15:25;;;;;;;10.02;2.30;;;;;;;19.87;32.33;102189.47;16114786;19;129711;-37
2023/05/19 16:20:47;;;;;;;9.63;2.15;;;;;;;19.84;32.47;102178.81;16114274;19;131096;-37
2023/05/19 16:26:09;;;;;;;20.27;3.83;;;;;;;19.84;32.54;102176.03;16115993;19;131043;-37
2023/05/19 16:31:31;;;;;;;17.23;5.68;;;;;;;19.86;32.77;102175.81;16110539;19;131235;-37
2023/05/19 16:36:52;;;;;;;22.38;5.68;;;;;;;19.85;32.29;102158.28;16113932;19;129911;-38
2023/05/19 16:42:15;;;;;;;23.38;5.28;;;;;;;19.83;32.59;102152.09;16112010;19;129582;-39
2023/05/19 16:47:37;;;;;;;22.27;4.90;;;;;;;19.80;32.55;102169.25;16113291;19;131765;-38
2023/05/19 16:52:59;;;;;;;14.48;4.07;;;;;;;19.78;32.81;102168.59;16115509;19;130037;-37
2023/05/19 16:58:21;;;;;;;17.08;4.70;;;;;;;19.75;32.81;102166.28;16109648;19;132483;-37
2023/05/19 17:03:43;;;;;;;17.13;4.35;;;;;;;19.75;32.75;102163.50;16112957;19;129536;-38
2023/05/19 17:09:05;;;;;;;10.25;3.28;;;;;;;19.75;32.83;102175.47;16125187;19;129953;-37
2023/05/19 17:14:27;;;;;;;10.25;3.10;;;;;;;19.74;33.17;102167.34;16125100;19;130664;-37
2023/05/19 17:19:48;;;;;;;12.88;3.20;;;;;;;19.73;33.25;102169.28;16124767;19;129545;-37
2023/05/19 17:25:11;;;;;;;10.77;3.15;;;;;;;19.72;33.38;102170.34;16117166;19;129402;-37
2023/05/19 17:30:33;;;;;;;10.07;3.10;;;;;;;19.73;32.99;102165.63;16125498;19;130076;-37
2023/05/19 17:35:55;;;;;;;11.20;3.17;;;;;;;19.70;32.93;102169.72;16121227;19;130314;-38
2023/05/19 17:41:17;;;;;;;8.52;2.67;;;;;;;19.72;33.25;102173.13;16121762;19;130202;-38
2023/05/19 17:46:39;;;;;;;7.93;2.47;;;;;;;19.68;33.11;102169.97;16119201;19;131382;-38
2023/05/19 17:52:02;;;;;;;10.00;2.60;;;;;;;19.66;33.07;102174.88;16117703;19;130970;-37
2023/05/19 17:57:27;;;;;;;8.27;2.75;;;;;;;19.66;33.10;102188.75;16122762;19;129405;-37
2023/05/19 18:02:50;;;;;;;7.43;2.22;;;;;;;19.63;33.30;102175.31;16124391;19;130200;-37
2023/05/19 18:08:12;;;;;;;12.57;2.50;;;;;;;19.62;32.98;102176.38;16116713;19;130985;-37
2023/05/19 18:13:35;;;;;;;8.18;2.10;;;;;;;19.60;33.30;102169.38;16116832;19;131676;-38
2023/05/19 18:18:57;;;;;;;9.77;2.35;;;;;;;19.59;33.14;102179.59;16116540;19;130122;-47
2023/05/19 18:24:19;;;;;;;8.68;2.53;;;;;;;19.57;33.15;102178.97;16122631;19;129385;-48
2023/05/19 18:29:41;;;;;;;7.65;2.20;;;;;;;19.55;33.15;102183.91;16125245;19;129652;-47
2023/05/19 18:35:03;;;;;;;7.00;2.25;;;;;;;19.53;33.13;102184.13;16123571;19;129751;-46
2023/05/19 18:40:25;;;;;;;9.57;2.30;;;;;;;19.52;33.06;102182.41;16119904;19;129307;-46
2023/05/19 18:45:47;;;;;;;13.73;2.60;;;;;;;19.52;33.34;102182.41;16121696;19;130960;-46
2023/05/19 18:51:09;;;;;;;9.23;2.63;;;;;;;19.52;33.45;102190.75;16119826;19;131458;-46
2023/05/19 18:56:32;;;;;;;7.82;2.30;;;;;;;19.52;33.38;102192.69;16118891;19;130022;-46
2023/05/19 19:01:54;;;;;;;8.80;2.17;;;;;;;19.51;33.56;102196.53;16122044;19;129327;-46
2023/05/19 19:07:15;;;;;;;5.82;1.75;;;;;;;19.50;33.62;102195.69;16120146;19;130611;-46
2023/05/19 19:12:40;;;;;;;7.20;2.22;;;;;;;19.50;33.46;102205.91;16114695;19;129894;-47
2023/05/19 19:18:02;;;;;;;8.27;1.85;;;;;;;19.49;33.63;102209.75;16118260;19;129530;-46
2023/05/19 19:23:26;;;;;;;8.82;2.30;;;;;;;19.47;33.50;102212.78;16119085;19;129632;-46
2023/05/19 19:28:48;;;;;;;5.97;1.80;;;;;;;19.47;33.66;102217.47;16114573;19;131223;-46
2023/05/19 19:34:10;;;;;;;8.40;2.40;;;;;;;19.45;33.62;102217.69;16116810;19;129566;-46
2023/05/19 19:39:32;;;;;;;7.55;2.00;;;;;;;19.45;33.65;102227.91;16117781;19;130159;-46
2023/05/19 19:44:54;;;;;;;8.48;2.60;;;;;;;19.41;33.82;102230.28;16119801;19;132012;-46
2023/05/19 19:50:16;;;;;;;8.45;2.35;;;;;;;19.41;33.81;102235.84;16115776;19;130013;-46
2023/05/19 19:55:38;;;;;;;9.85;2.22;;;;;;;19.40;33.64;102241.63;16115827;19;129316;-47
2023/05/19 20:01:02;;;;;;;8.52;2.17;;;;;;;19.39;33.81;102243.53;16116911;19;131209;-46
2023/05/19 20:06:24;;;;;;;8.18;2.03;;;;;;;19.37;34.13;102243.75;16112761;19;130297;-46
2023/05/19 20:11:45;;;;;;;7.60;1.85;;;;;;;19.37;34.35;102254.84;16115653;19;129450;-47
2023/05/19 20:17:07;;;;;;;8.63;2.00;;;;;;;19.37;34.22;102257.63;16116158;19;130514;-47
2023/05/19 20:22:29;;;;;;;12.45;2.42;;;;;;;19.37;34.22;102257.63;16111160;19;131175;-48
2023/05/19 20:27:51;;;;;;;13.57;2.15;;;;;;;19.36;34.46;102255.09;16113537;19;129353;-47
2023/05/19 20:33:13;;;;;;;10.25;2.30;;;;;;;19.33;34.41;102256.34;16109502;19;130643;-38
2023/05/19 20:38:35;;;;;;;9.68;2.08;;;;;;;19.32;34.77;102262.97;16108652;19;131697;-37
2023/05/19 20:43:57;;;;;;;13.93;2.65;;;;;;;19.30;34.31;102269.81;16113344;19;130919;-38
2023/05/19 20:49:19;;;;;;;8.32;2.25;;;;;;;19.27;34.41;102273.91;16111025;19;130270;-38
2023/05/19 20:54:41;;;;;;;4.80;2.10;;;;;;;19.24;34.48;102271.53;16108969;19;129321;-38
2023/05/19 21:00:03;;;;;;;7.72;2.10;;;;;;;19.23;34.45;102278.16;16112960;19;130306;-38
2023/05/19 21:05:25;;;;;;;5.45;2.13;;;;;;;19.22;34.56;102271.78;16113157;19;129483;-38
2023/05/19 21:10:47;;;;;;;4.50;1.60;;;;;;;19.20;34.48;102273.03;16112171;19;130367;-38
2023/05/19 21:16:09;;;;;;;7.97;2.30;;;;;;;19.18;34.31;102278.78;16109443;19;130956;-39
2023/05/19 21:21:32;;;;;;;3.97;1.80;;;;;;;19.19;34.40;102279.66;16105932;19;130350;-38
2023/05/19 21:26:54;;;;;;;6.50;2.03;;;;;;;19.16;34.21;102278.16;16108031;19;130882;-38
2023/05/19 21:32:16;;;;;;;8.02;2.20;;;;;;;19.15;34.75;102275.59;16109842;19;130735;-38
2023/05/19 21:37:38;;;;;;;6.10;2.03;;;;;;;19.14;34.57;102283.06;16102113;19;131931;-48
2023/05/19 21:43:00;;;;;;;7.63;2.20;;;;;;;19.14;34.45;102280.28;16108177;19;131276;-47
2023/05/19 21:48:22;;;;;;;5.30;1.92;;;;;;;19.14;34.65;102271.97;16106896;19;130038;-48
2023/05/19 21:53:44;;;;;;;8.18;1.80;;;;;;;19.13;34.30;102278.59;16125017;19;130484;-47
2023/05/19 21:59:06;;;;;;;3.75;1.67;;;;;;;19.13;34.32;102284.16;16124555;19;129691;-47
2023/05/19 22:04:30;;;;;;;7.65;2.35;;;;;;;19.12;34.46;102276.03;16126545;19;129698;-47
2023/05/19 22:09:52;;;;;;;3.17;1.88;;;;;;;19.10;34.61;102278.16;16121661;19;130265;-47
2023/05/19 22:15:14;;;;;;;6.25;2.33;;;;;;;19.09;34.70;102277.31;16122963;19;130396;-47
2023/05/19 22:20:36;;;;;;;6.50;2.25;;;;;;;19.09;34.89;102271.78;16118193;19;131143;-46
2023/05/19 22:25:58;;;;;;;8.98;2.10;;;;;;;19.07;34.87;102269.22;16116617;19;129743;-48
2023/05/19 22:31:20;;;;;;;5.47;1.60;;;;;;;19.06;34.64;102267.53;16115317;19;130531;-47
2023/05/19 22:36:44;;;;;;;6.35;2.17;;;;;;;19.06;34.92;102270.28;16117991;19;129810;-48
2023/05/19 22:42:06;;;;;;;4.65;2.08;;;;;;;19.06;34.88;102275.84;16120443;19;131057;-47
2023/05/19 22:47:28;;;;;;;4.93;1.90;;;;;;;19.05;34.93;102270.50;16110645;19;131815;-48
2023/05/19 22:52:50;;;;;;;4.93;2.30;;;;;;;19.04;34.51;102261.34;16115322;19;130800;-46
2023/05/19 22:58:12;;;;;;;5.68;2.33;;;;;;;19.04;34.61;102263.25;16116842;19;130713;-48
2023/05/19 23:03:34;;;;;;;4.80;2.03;;;;;;;19.03;34.94;102267.94;16114267;19;130905;-47
2023/05/19 23:09:01;;;;;;;5.75;2.10;;;;;;;19.03;34.77;102262.41;16116615;19;129832;-48
2023/05/19 23:14:24;;;;;;;6.82;1.92;;;;;;;19.02;34.66;102255.16;16115301;19;130624;-48
2023/05/19 23:19:46;;;;;;;4.88;1.90;;;;;;;19.00;34.87;102257.28;16112951;19;131591;-47
2023/05/19 23:25:08;;;;;;;4.72;1.73;;;;;;;18.99;34.78;102254.72;16119688;19;129857;-47
2023/05/19 23:30:31;;;;;;;5.57;2.00;;;;;;;18.99;34.75;102258.34;16113207;19;130391;-48
2023/05/19 23:35:53;;;;;;;6.35;2.03;;;;;;;18.98;34.48;102253.03;16116484;19;129407;-48
2023/05/19 23:41:15;;;;;;;4.05;1.95;;;;;;;18.96;34.59;102250.44;16112370;19;131268;-38
2023/05/19 23:46:37;;;;;;;3.80;1.70;;;;;;;18.94;34.73;102260.94;16111951;19;129822;-38
2023/05/19 23:51:59;;;;;;;4.47;2.00;;;;;;;18.93;34.89;102250.91;16115510;19;131522;-38
2023/05/19 23:57:20;;;;;;;4.72;2.03;;;;;;;;;;16108934;19;130598;-38
